sensor_id;sensor_type;location;lat;lon;timestamp;P1;durP1;ratioP1;P2;durP2;ratioP2
54923;SDS011;40825;52.270;20.984;2023-07-16T00:00:27;7.60;;;4.30;;
54923;SDS011;40825;52.270;20.984;2023-07-16T00:06:12;7.70;;;3.70;;
54923;SDS011;40825;52.270;20.984;2023-07-16T00:08:37;7.10;;;3.60;;
54923;SDS011;40825;52.270;20.984;2023-07-16T00:11:05;6.40;;;3.50;;
54923;SDS011;40825;52.270;20.984;2023-07-16T00:13:30;6.30;;;3.50;;
54923;SDS011;40825;52.270;20.984;2023-07-16T00:15:56;6.40;;;3.90;;
54923;SDS011;40825;52.270;20.984;2023-07-16T00:18:22;6.90;;;4.00;;
54923;SDS011;40825;52.270;20.984;2023-07-16T00:20:55;7.40;;;4.30;;
54923;SDS011;40825;52.270;20.984;2023-07-16T00:23:20;6.90;;;4.70;;
54923;SDS011;40825;52.270;20.984;2023-07-16T00:28:13;6.90;;;4.00;;
54923;SDS011;40825;52.270;20.984;2023-07-16T00:30:39;9.50;;;4.80;;
54923;SDS011;40825;52.270;20.984;2023-07-16T00:33:04;7.70;;;4.60;;
54923;SDS011;40825;52.270;20.984;2023-07-16T00:35:33;5.60;;;4.10;;
54923;SDS011;40825;52.270;20.984;2023-07-16T00:37:59;6.30;;;4.50;;
54923;SDS011;40825;52.270;20.984;2023-07-16T00:40:24;8.40;;;4.50;;
54923;SDS011;40825;52.270;20.984;2023-07-16T00:42:50;6.70;;;4.00;;
54923;SDS011;40825;52.270;20.984;2023-07-16T00:45:16;9.10;;;6.10;;
54923;SDS011;40825;52.270;20.984;2023-07-16T00:47:42;8.50;;;5.60;;
54923;SDS011;40825;52.270;20.984;2023-07-16T00:50:12;8.20;;;6.30;;
54923;SDS011;40825;52.270;20.984;2023-07-16T00:52:38;9.10;;;6.50;;
54923;SDS011;40825;52.270;20.984;2023-07-16T00:55:05;7.70;;;5.70;;
54923;SDS011;40825;52.270;20.984;2023-07-16T00:57:32;9.30;;;6.90;;
54923;SDS011;40825;52.270;20.984;2023-07-16T00:59:58;8.00;;;5.40;;
54923;SDS011;40825;52.270;20.984;2023-07-16T01:02:32;8.80;;;6.80;;
54923;SDS011;40825;52.270;20.984;2023-07-16T01:04:58;8.80;;;6.10;;
54923;SDS011;40825;52.270;20.984;2023-07-16T01:07:25;8.80;;;5.60;;
54923;SDS011;40825;52.270;20.984;2023-07-16T01:09:55;8.60;;;5.50;;
54923;SDS011;40825;52.270;20.984;2023-07-16T01:12:42;8.00;;;5.30;;
54923;SDS011;40825;52.270;20.984;2023-07-16T01:15:10;8.60;;;5.10;;
54923;SDS011;40825;52.270;20.984;2023-07-16T01:17:35;9.30;;;5.40;;
54923;SDS011;40825;52.270;20.984;2023-07-16T01:20:08;9.40;;;5.50;;
54923;SDS011;40825;52.270;20.984;2023-07-16T01:22:39;8.50;;;5.70;;
54923;SDS011;40825;52.270;20.984;2023-07-16T01:30:34;9.30;;;6.00;;
54923;SDS011;40825;52.270;20.984;2023-07-16T01:33:14;8.50;;;6.20;;
54923;SDS011;40825;52.270;20.984;2023-07-16T01:35:43;9.40;;;6.50;;
54923;SDS011;40825;52.270;20.984;2023-07-16T01:38:34;8.90;;;6.00;;
54923;SDS011;40825;52.270;20.984;2023-07-16T01:41:04;8.50;;;5.90;;
54923;SDS011;40825;52.270;20.984;2023-07-16T01:43:38;9.30;;;5.70;;
54923;SDS011;40825;52.270;20.984;2023-07-16T01:46:07;9.60;;;6.10;;
54923;SDS011;40825;52.270;20.984;2023-07-16T01:48:42;8.40;;;6.00;;
54923;SDS011;40825;52.270;20.984;2023-07-16T01:51:08;9.40;;;5.50;;
54923;SDS011;40825;52.270;20.984;2023-07-16T01:53:34;9.90;;;6.40;;
54923;SDS011;40825;52.270;20.984;2023-07-16T01:56:20;9.20;;;5.70;;
54923;SDS011;40825;52.270;20.984;2023-07-16T02:01:28;10.00;;;5.80;;
54923;SDS011;40825;52.270;20.984;2023-07-16T02:03:53;9.20;;;6.90;;
54923;SDS011;40825;52.270;20.984;2023-07-16T02:06:19;9.20;;;6.50;;
54923;SDS011;40825;52.270;20.984;2023-07-16T02:09:12;9.00;;;6.10;;
54923;SDS011;40825;52.270;20.984;2023-07-16T02:11:37;8.80;;;6.40;;
54923;SDS011;40825;52.270;20.984;2023-07-16T02:14:03;9.60;;;7.30;;
54923;SDS011;40825;52.270;20.984;2023-07-16T02:16:31;12.40;;;7.60;;
54923;SDS011;40825;52.270;20.984;2023-07-16T02:18:56;10.80;;;7.70;;
54923;SDS011;40825;52.270;20.984;2023-07-16T02:21:25;9.40;;;6.30;;
54923;SDS011;40825;52.270;20.984;2023-07-16T02:23:53;8.80;;;6.20;;
54923;SDS011;40825;52.270;20.984;2023-07-16T02:26:19;10.60;;;7.10;;
54923;SDS011;40825;52.270;20.984;2023-07-16T02:28:47;9.50;;;6.60;;
54923;SDS011;40825;52.270;20.984;2023-07-16T02:34:03;8.50;;;6.40;;
54923;SDS011;40825;52.270;20.984;2023-07-16T02:39:02;10.80;;;6.50;;
54923;SDS011;40825;52.270;20.984;2023-07-16T02:41:30;10.30;;;6.80;;
54923;SDS011;40825;52.270;20.984;2023-07-16T02:44:00;11.70;;;6.40;;
54923;SDS011;40825;52.270;20.984;2023-07-16T02:46:27;9.20;;;6.30;;
54923;SDS011;40825;52.270;20.984;2023-07-16T02:48:53;10.40;;;8.00;;
54923;SDS011;40825;52.270;20.984;2023-07-16T02:51:19;9.00;;;6.30;;
54923;SDS011;40825;52.270;20.984;2023-07-16T02:53:44;9.20;;;6.30;;
54923;SDS011;40825;52.270;20.984;2023-07-16T02:56:10;9.70;;;6.80;;
54923;SDS011;40825;52.270;20.984;2023-07-16T02:58:36;10.20;;;6.60;;
54923;SDS011;40825;52.270;20.984;2023-07-16T03:01:02;9.90;;;7.30;;
54923;SDS011;40825;52.270;20.984;2023-07-16T03:03:29;9.50;;;7.20;;
54923;SDS011;40825;52.270;20.984;2023-07-16T03:06:18;9.50;;;7.20;;
54923;SDS011;40825;52.270;20.984;2023-07-16T03:08:44;9.10;;;6.50;;
54923;SDS011;40825;52.270;20.984;2023-07-16T03:11:11;9.10;;;6.60;;
54923;SDS011;40825;52.270;20.984;2023-07-16T03:13:37;8.30;;;5.80;;
54923;SDS011;40825;52.270;20.984;2023-07-16T03:16:15;9.40;;;6.60;;
54923;SDS011;40825;52.270;20.984;2023-07-16T03:18:57;12.00;;;6.40;;
54923;SDS011;40825;52.270;20.984;2023-07-16T03:21:37;9.50;;;6.90;;
54923;SDS011;40825;52.270;20.984;2023-07-16T03:24:11;10.30;;;6.40;;
54923;SDS011;40825;52.270;20.984;2023-07-16T03:26:37;9.40;;;6.60;;
54923;SDS011;40825;52.270;20.984;2023-07-16T03:29:08;9.70;;;6.10;;
54923;SDS011;40825;52.270;20.984;2023-07-16T03:31:37;10.30;;;6.60;;
54923;SDS011;40825;52.270;20.984;2023-07-16T03:34:10;12.00;;;7.00;;
54923;SDS011;40825;52.270;20.984;2023-07-16T03:36:49;9.80;;;6.50;;
54923;SDS011;40825;52.270;20.984;2023-07-16T03:39:17;9.60;;;6.90;;
54923;SDS011;40825;52.270;20.984;2023-07-16T03:41:46;9.00;;;6.50;;
54923;SDS011;40825;52.270;20.984;2023-07-16T03:44:12;11.70;;;7.10;;
54923;SDS011;40825;52.270;20.984;2023-07-16T03:46:37;10.30;;;6.80;;
54923;SDS011;40825;52.270;20.984;2023-07-16T03:49:06;9.10;;;6.70;;
54923;SDS011;40825;52.270;20.984;2023-07-16T03:51:34;10.10;;;7.20;;
54923;SDS011;40825;52.270;20.984;2023-07-16T03:54:03;9.40;;;7.00;;
54923;SDS011;40825;52.270;20.984;2023-07-16T03:56:31;9.90;;;7.20;;
54923;SDS011;40825;52.270;20.984;2023-07-16T03:58:57;9.10;;;6.50;;
54923;SDS011;40825;52.270;20.984;2023-07-16T04:01:23;10.30;;;6.70;;
54923;SDS011;40825;52.270;20.984;2023-07-16T04:03:49;9.80;;;7.80;;
54923;SDS011;40825;52.270;20.984;2023-07-16T04:06:15;11.60;;;6.60;;
54923;SDS011;40825;52.270;20.984;2023-07-16T04:08:40;10.60;;;7.40;;
54923;SDS011;40825;52.270;20.984;2023-07-16T04:11:06;8.50;;;6.50;;
54923;SDS011;40825;52.270;20.984;2023-07-16T04:13:34;9.80;;;7.00;;
54923;SDS011;40825;52.270;20.984;2023-07-16T04:16:03;10.00;;;7.20;;
54923;SDS011;40825;52.270;20.984;2023-07-16T04:18:29;8.70;;;6.30;;
54923;SDS011;40825;52.270;20.984;2023-07-16T04:20:55;9.30;;;6.50;;
54923;SDS011;40825;52.270;20.984;2023-07-16T04:23:21;8.80;;;7.10;;
54923;SDS011;40825;52.270;20.984;2023-07-16T04:25:50;8.20;;;6.30;;
54923;SDS011;40825;52.270;20.984;2023-07-16T04:28:17;10.00;;;6.70;;
54923;SDS011;40825;52.270;20.984;2023-07-16T04:30:43;9.20;;;7.20;;
54923;SDS011;40825;52.270;20.984;2023-07-16T04:33:11;9.40;;;6.30;;
54923;SDS011;40825;52.270;20.984;2023-07-16T04:35:37;11.40;;;7.20;;
54923;SDS011;40825;52.270;20.984;2023-07-16T04:38:02;8.50;;;6.60;;
54923;SDS011;40825;52.270;20.984;2023-07-16T04:40:29;9.30;;;7.10;;
54923;SDS011;40825;52.270;20.984;2023-07-16T04:42:58;9.50;;;7.90;;
54923;SDS011;40825;52.270;20.984;2023-07-16T04:45:24;8.20;;;6.80;;
54923;SDS011;40825;52.270;20.984;2023-07-16T04:47:49;7.90;;;6.20;;
54923;SDS011;40825;52.270;20.984;2023-07-16T04:50:15;11.10;;;7.30;;
54923;SDS011;40825;52.270;20.984;2023-07-16T04:52:40;9.30;;;7.40;;
54923;SDS011;40825;52.270;20.984;2023-07-16T04:55:06;8.20;;;6.30;;
54923;SDS011;40825;52.270;20.984;2023-07-16T04:57:32;8.40;;;5.90;;
54923;SDS011;40825;52.270;20.984;2023-07-16T04:59:58;7.20;;;5.70;;
54923;SDS011;40825;52.270;20.984;2023-07-16T05:02:24;9.90;;;6.00;;
54923;SDS011;40825;52.270;20.984;2023-07-16T05:04:49;8.30;;;5.80;;
54923;SDS011;40825;52.270;20.984;2023-07-16T05:07:14;9.50;;;6.50;;
54923;SDS011;40825;52.270;20.984;2023-07-16T05:09:41;7.60;;;5.20;;
54923;SDS011;40825;52.270;20.984;2023-07-16T05:12:07;7.90;;;5.60;;
54923;SDS011;40825;52.270;20.984;2023-07-16T05:14:42;8.10;;;6.40;;
54923;SDS011;40825;52.270;20.984;2023-07-16T05:17:08;8.80;;;5.60;;
54923;SDS011;40825;52.270;20.984;2023-07-16T05:19:34;7.70;;;5.80;;
54923;SDS011;40825;52.270;20.984;2023-07-16T05:22:00;8.80;;;6.10;;
54923;SDS011;40825;52.270;20.984;2023-07-16T05:24:25;9.50;;;6.00;;
54923;SDS011;40825;52.270;20.984;2023-07-16T05:26:51;7.40;;;5.80;;
54923;SDS011;40825;52.270;20.984;2023-07-16T05:29:17;7.70;;;6.80;;
54923;SDS011;40825;52.270;20.984;2023-07-16T05:31:43;8.60;;;6.70;;
54923;SDS011;40825;52.270;20.984;2023-07-16T05:34:09;9.60;;;6.50;;
54923;SDS011;40825;52.270;20.984;2023-07-16T05:36:35;8.50;;;6.10;;
54923;SDS011;40825;52.270;20.984;2023-07-16T05:39:03;8.40;;;6.10;;
54923;SDS011;40825;52.270;20.984;2023-07-16T05:41:29;8.40;;;6.30;;
54923;SDS011;40825;52.270;20.984;2023-07-16T05:44:02;9.60;;;6.00;;
54923;SDS011;40825;52.270;20.984;2023-07-16T05:46:28;8.70;;;6.70;;
54923;SDS011;40825;52.270;20.984;2023-07-16T05:48:53;9.90;;;6.40;;
54923;SDS011;40825;52.270;20.984;2023-07-16T05:51:19;9.80;;;7.90;;
54923;SDS011;40825;52.270;20.984;2023-07-16T05:53:44;9.00;;;6.80;;
54923;SDS011;40825;52.270;20.984;2023-07-16T05:56:10;12.00;;;7.40;;
54923;SDS011;40825;52.270;20.984;2023-07-16T05:58:35;9.50;;;7.10;;
54923;SDS011;40825;52.270;20.984;2023-07-16T06:01:01;9.40;;;7.00;;
54923;SDS011;40825;52.270;20.984;2023-07-16T06:03:26;8.90;;;7.30;;
54923;SDS011;40825;52.270;20.984;2023-07-16T06:05:52;7.80;;;6.00;;
54923;SDS011;40825;52.270;20.984;2023-07-16T06:08:17;7.60;;;5.70;;
54923;SDS011;40825;52.270;20.984;2023-07-16T06:10:43;8.50;;;6.50;;
54923;SDS011;40825;52.270;20.984;2023-07-16T06:13:08;7.80;;;5.80;;
54923;SDS011;40825;52.270;20.984;2023-07-16T06:15:34;9.70;;;5.70;;
54923;SDS011;40825;52.270;20.984;2023-07-16T06:17:59;7.80;;;5.30;;
54923;SDS011;40825;52.270;20.984;2023-07-16T06:20:25;7.70;;;5.20;;
54923;SDS011;40825;52.270;20.984;2023-07-16T06:22:50;7.20;;;6.00;;
54923;SDS011;40825;52.270;20.984;2023-07-16T06:25:16;8.70;;;6.20;;
54923;SDS011;40825;52.270;20.984;2023-07-16T06:27:41;7.50;;;5.40;;
54923;SDS011;40825;52.270;20.984;2023-07-16T06:30:06;7.80;;;6.20;;
54923;SDS011;40825;52.270;20.984;2023-07-16T06:32:32;7.30;;;6.10;;
54923;SDS011;40825;52.270;20.984;2023-07-16T06:34:58;8.20;;;5.10;;
54923;SDS011;40825;52.270;20.984;2023-07-16T06:37:23;6.80;;;5.10;;
54923;SDS011;40825;52.270;20.984;2023-07-16T06:39:49;7.40;;;4.90;;
54923;SDS011;40825;52.270;20.984;2023-07-16T06:42:15;6.10;;;5.30;;
54923;SDS011;40825;52.270;20.984;2023-07-16T06:44:40;7.70;;;5.50;;
54923;SDS011;40825;52.270;20.984;2023-07-16T06:47:06;7.80;;;4.70;;
54923;SDS011;40825;52.270;20.984;2023-07-16T06:49:31;7.10;;;4.60;;
54923;SDS011;40825;52.270;20.984;2023-07-16T06:51:57;7.90;;;5.30;;
54923;SDS011;40825;52.270;20.984;2023-07-16T06:54:22;6.40;;;4.70;;
54923;SDS011;40825;52.270;20.984;2023-07-16T06:56:48;6.20;;;5.30;;
54923;SDS011;40825;52.270;20.984;2023-07-16T06:59:13;7.10;;;5.00;;
54923;SDS011;40825;52.270;20.984;2023-07-16T07:01:38;6.20;;;4.70;;
54923;SDS011;40825;52.270;20.984;2023-07-16T07:04:04;7.70;;;5.40;;
54923;SDS011;40825;52.270;20.984;2023-07-16T07:06:29;10.20;;;5.90;;
54923;SDS011;40825;52.270;20.984;2023-07-16T07:08:55;6.70;;;5.00;;
54923;SDS011;40825;52.270;20.984;2023-07-16T07:11:21;6.50;;;5.20;;
54923;SDS011;40825;52.270;20.984;2023-07-16T07:13:46;7.00;;;5.70;;
54923;SDS011;40825;52.270;20.984;2023-07-16T07:16:12;7.40;;;5.50;;
54923;SDS011;40825;52.270;20.984;2023-07-16T07:18:37;7.10;;;5.20;;
54923;SDS011;40825;52.270;20.984;2023-07-16T07:21:03;6.90;;;4.80;;
54923;SDS011;40825;52.270;20.984;2023-07-16T07:23:28;6.10;;;4.90;;
54923;SDS011;40825;52.270;20.984;2023-07-16T07:25:54;5.60;;;4.20;;
54923;SDS011;40825;52.270;20.984;2023-07-16T07:28:19;7.20;;;5.00;;
54923;SDS011;40825;52.270;20.984;2023-07-16T07:30:45;9.00;;;4.50;;
54923;SDS011;40825;52.270;20.984;2023-07-16T07:33:11;6.00;;;4.70;;
54923;SDS011;40825;52.270;20.984;2023-07-16T07:35:37;7.50;;;4.60;;
54923;SDS011;40825;52.270;20.984;2023-07-16T07:38:03;7.00;;;4.80;;
54923;SDS011;40825;52.270;20.984;2023-07-16T07:40:29;7.20;;;4.60;;
54923;SDS011;40825;52.270;20.984;2023-07-16T07:42:55;6.30;;;4.40;;
54923;SDS011;40825;52.270;20.984;2023-07-16T07:45:21;7.40;;;4.30;;
54923;SDS011;40825;52.270;20.984;2023-07-16T07:47:46;6.60;;;4.00;;
54923;SDS011;40825;52.270;20.984;2023-07-16T07:50:11;6.50;;;4.40;;
54923;SDS011;40825;52.270;20.984;2023-07-16T07:52:37;5.40;;;4.20;;
54923;SDS011;40825;52.270;20.984;2023-07-16T07:55:03;5.40;;;3.90;;
54923;SDS011;40825;52.270;20.984;2023-07-16T07:57:29;6.10;;;4.20;;
54923;SDS011;40825;52.270;20.984;2023-07-16T07:59:54;7.40;;;4.50;;
54923;SDS011;40825;52.270;20.984;2023-07-16T08:02:25;5.80;;;4.40;;
54923;SDS011;40825;52.270;20.984;2023-07-16T08:04:52;5.20;;;4.10;;
54923;SDS011;40825;52.270;20.984;2023-07-16T08:07:18;6.50;;;4.30;;
54923;SDS011;40825;52.270;20.984;2023-07-16T08:09:43;6.50;;;5.00;;
54923;SDS011;40825;52.270;20.984;2023-07-16T08:12:09;7.10;;;4.60;;
54923;SDS011;40825;52.270;20.984;2023-07-16T08:14:34;8.00;;;3.90;;
54923;SDS011;40825;52.270;20.984;2023-07-16T08:17:00;5.90;;;4.20;;
54923;SDS011;40825;52.270;20.984;2023-07-16T08:19:25;5.30;;;3.50;;
54923;SDS011;40825;52.270;20.984;2023-07-16T08:21:51;7.20;;;4.40;;
54923;SDS011;40825;52.270;20.984;2023-07-16T08:24:16;6.90;;;4.40;;
54923;SDS011;40825;52.270;20.984;2023-07-16T08:26:42;6.10;;;4.40;;
54923;SDS011;40825;52.270;20.984;2023-07-16T08:29:07;7.20;;;4.50;;
54923;SDS011;40825;52.270;20.984;2023-07-16T08:31:32;6.20;;;4.60;;
54923;SDS011;40825;52.270;20.984;2023-07-16T08:33:58;6.50;;;3.70;;
54923;SDS011;40825;52.270;20.984;2023-07-16T08:36:24;5.40;;;4.20;;
54923;SDS011;40825;52.270;20.984;2023-07-16T08:38:49;6.50;;;4.20;;
54923;SDS011;40825;52.270;20.984;2023-07-16T08:41:15;7.70;;;3.90;;
54923;SDS011;40825;52.270;20.984;2023-07-16T08:43:41;6.00;;;4.00;;
54923;SDS011;40825;52.270;20.984;2023-07-16T08:48:33;5.00;;;3.80;;
54923;SDS011;40825;52.270;20.984;2023-07-16T08:50:59;4.20;;;2.80;;
54923;SDS011;40825;52.270;20.984;2023-07-16T08:53:27;5.50;;;3.80;;
54923;SDS011;40825;52.270;20.984;2023-07-16T08:55:53;6.10;;;4.30;;
54923;SDS011;40825;52.270;20.984;2023-07-16T08:58:19;6.60;;;3.40;;
54923;SDS011;40825;52.270;20.984;2023-07-16T09:00:48;5.30;;;3.40;;
54923;SDS011;40825;52.270;20.984;2023-07-16T09:03:14;6.00;;;3.60;;
54923;SDS011;40825;52.270;20.984;2023-07-16T09:05:43;5.20;;;3.80;;
54923;SDS011;40825;52.270;20.984;2023-07-16T09:08:09;5.00;;;3.40;;
54923;SDS011;40825;52.270;20.984;2023-07-16T09:10:35;6.10;;;3.40;;
54923;SDS011;40825;52.270;20.984;2023-07-16T09:13:01;4.50;;;3.00;;
54923;SDS011;40825;52.270;20.984;2023-07-16T09:15:27;4.90;;;3.00;;
54923;SDS011;40825;52.270;20.984;2023-07-16T09:17:54;6.20;;;3.70;;
54923;SDS011;40825;52.270;20.984;2023-07-16T09:20:20;8.40;;;3.70;;
54923;SDS011;40825;52.270;20.984;2023-07-16T09:22:48;5.60;;;3.90;;
54923;SDS011;40825;52.270;20.984;2023-07-16T09:25:14;4.70;;;3.50;;
54923;SDS011;40825;52.270;20.984;2023-07-16T09:27:40;5.80;;;4.00;;
54923;SDS011;40825;52.270;20.984;2023-07-16T09:30:06;5.00;;;3.50;;
54923;SDS011;40825;52.270;20.984;2023-07-16T09:35:06;5.70;;;2.90;;
54923;SDS011;40825;52.270;20.984;2023-07-16T09:37:38;5.10;;;3.40;;
54923;SDS011;40825;52.270;20.984;2023-07-16T09:40:06;5.10;;;3.70;;
54923;SDS011;40825;52.270;20.984;2023-07-16T09:42:36;6.40;;;3.90;;
54923;SDS011;40825;52.270;20.984;2023-07-16T09:45:03;5.00;;;3.70;;
54923;SDS011;40825;52.270;20.984;2023-07-16T09:47:30;6.30;;;4.30;;
54923;SDS011;40825;52.270;20.984;2023-07-16T09:49:55;7.30;;;4.20;;
54923;SDS011;40825;52.270;20.984;2023-07-16T09:52:21;5.20;;;3.90;;
54923;SDS011;40825;52.270;20.984;2023-07-16T09:54:46;5.20;;;4.00;;
54923;SDS011;40825;52.270;20.984;2023-07-16T09:57:15;7.00;;;3.20;;
54923;SDS011;40825;52.270;20.984;2023-07-16T09:59:41;7.60;;;4.10;;
54923;SDS011;40825;52.270;20.984;2023-07-16T10:02:07;7.40;;;4.00;;
54923;SDS011;40825;52.270;20.984;2023-07-16T10:04:39;4.80;;;3.10;;
54923;SDS011;40825;52.270;20.984;2023-07-16T10:07:21;8.70;;;3.90;;
54923;SDS011;40825;52.270;20.984;2023-07-16T10:12:21;6.00;;;3.50;;
54923;SDS011;40825;52.270;20.984;2023-07-16T10:14:48;5.20;;;3.00;;
54923;SDS011;40825;52.270;20.984;2023-07-16T10:17:25;8.70;;;4.30;;
54923;SDS011;40825;52.270;20.984;2023-07-16T10:20:08;6.20;;;3.60;;
54923;SDS011;40825;52.270;20.984;2023-07-16T10:22:40;6.80;;;3.70;;
54923;SDS011;40825;52.270;20.984;2023-07-16T10:25:10;7.50;;;4.20;;
54923;SDS011;40825;52.270;20.984;2023-07-16T10:30:13;6.90;;;4.50;;
54923;SDS011;40825;52.270;20.984;2023-07-16T10:32:39;5.80;;;4.50;;
54923;SDS011;40825;52.270;20.984;2023-07-16T10:35:06;6.60;;;4.60;;
54923;SDS011;40825;52.270;20.984;2023-07-16T10:37:36;5.90;;;4.30;;
54923;SDS011;40825;52.270;20.984;2023-07-16T10:40:02;6.00;;;4.80;;
54923;SDS011;40825;52.270;20.984;2023-07-16T10:42:29;7.10;;;4.80;;
54923;SDS011;40825;52.270;20.984;2023-07-16T10:44:59;7.20;;;4.20;;
54923;SDS011;40825;52.270;20.984;2023-07-16T10:47:30;7.50;;;4.90;;
54923;SDS011;40825;52.270;20.984;2023-07-16T10:50:03;7.10;;;5.30;;
54923;SDS011;40825;52.270;20.984;2023-07-16T10:52:30;6.40;;;4.90;;
54923;SDS011;40825;52.270;20.984;2023-07-16T10:54:56;7.60;;;5.30;;
54923;SDS011;40825;52.270;20.984;2023-07-16T10:57:23;8.30;;;5.00;;
54923;SDS011;40825;52.270;20.984;2023-07-16T10:59:55;7.90;;;4.90;;
54923;SDS011;40825;52.270;20.984;2023-07-16T11:02:23;7.90;;;4.00;;
54923;SDS011;40825;52.270;20.984;2023-07-16T11:04:50;6.80;;;5.10;;
54923;SDS011;40825;52.270;20.984;2023-07-16T11:07:18;7.90;;;4.80;;
54923;SDS011;40825;52.270;20.984;2023-07-16T11:09:46;6.40;;;4.90;;
54923;SDS011;40825;52.270;20.984;2023-07-16T11:12:14;7.10;;;4.90;;
54923;SDS011;40825;52.270;20.984;2023-07-16T11:14:45;10.80;;;5.50;;
54923;SDS011;40825;52.270;20.984;2023-07-16T11:17:12;6.90;;;3.80;;
54923;SDS011;40825;52.270;20.984;2023-07-16T11:19:38;8.00;;;5.10;;
54923;SDS011;40825;52.270;20.984;2023-07-16T11:22:05;6.40;;;4.20;;
54923;SDS011;40825;52.270;20.984;2023-07-16T11:24:36;6.30;;;3.70;;
54923;SDS011;40825;52.270;20.984;2023-07-16T11:27:12;6.20;;;4.20;;
54923;SDS011;40825;52.270;20.984;2023-07-16T11:29:38;6.10;;;4.30;;
54923;SDS011;40825;52.270;20.984;2023-07-16T11:32:04;8.30;;;4.10;;
54923;SDS011;40825;52.270;20.984;2023-07-16T11:34:30;7.00;;;4.40;;
54923;SDS011;40825;52.270;20.984;2023-07-16T11:37:06;6.40;;;4.40;;
54923;SDS011;40825;52.270;20.984;2023-07-16T11:39:35;6.00;;;4.50;;
54923;SDS011;40825;52.270;20.984;2023-07-16T11:42:02;7.50;;;5.10;;
54923;SDS011;40825;52.270;20.984;2023-07-16T11:44:36;9.40;;;4.60;;
54923;SDS011;40825;52.270;20.984;2023-07-16T11:47:02;8.30;;;5.00;;
54923;SDS011;40825;52.270;20.984;2023-07-16T11:49:28;6.70;;;4.60;;
54923;SDS011;40825;52.270;20.984;2023-07-16T11:51:54;7.70;;;4.20;;
54923;SDS011;40825;52.270;20.984;2023-07-16T11:54:19;5.40;;;3.90;;
54923;SDS011;40825;52.270;20.984;2023-07-16T11:56:45;7.20;;;4.30;;
54923;SDS011;40825;52.270;20.984;2023-07-16T11:59:12;7.50;;;4.50;;
54923;SDS011;40825;52.270;20.984;2023-07-16T12:01:38;8.90;;;5.90;;
54923;SDS011;40825;52.270;20.984;2023-07-16T12:04:03;6.70;;;4.70;;
54923;SDS011;40825;52.270;20.984;2023-07-16T12:06:29;7.50;;;4.40;;
54923;SDS011;40825;52.270;20.984;2023-07-16T12:08:54;8.70;;;5.00;;
54923;SDS011;40825;52.270;20.984;2023-07-16T12:11:20;6.40;;;4.50;;
54923;SDS011;40825;52.270;20.984;2023-07-16T12:13:47;7.00;;;4.30;;
54923;SDS011;40825;52.270;20.984;2023-07-16T12:16:12;6.20;;;4.60;;
54923;SDS011;40825;52.270;20.984;2023-07-16T12:18:38;7.90;;;4.00;;
54923;SDS011;40825;52.270;20.984;2023-07-16T12:21:03;5.60;;;3.90;;
54923;SDS011;40825;52.270;20.984;2023-07-16T12:23:29;5.50;;;3.90;;
54923;SDS011;40825;52.270;20.984;2023-07-16T12:25:55;5.60;;;4.00;;
54923;SDS011;40825;52.270;20.984;2023-07-16T12:28:20;10.20;;;3.90;;
54923;SDS011;40825;52.270;20.984;2023-07-16T12:30:46;6.40;;;3.90;;
54923;SDS011;40825;52.270;20.984;2023-07-16T12:33:11;6.70;;;4.20;;
54923;SDS011;40825;52.270;20.984;2023-07-16T12:35:37;7.00;;;5.30;;
54923;SDS011;40825;52.270;20.984;2023-07-16T12:38:02;9.20;;;5.00;;
54923;SDS011;40825;52.270;20.984;2023-07-16T12:40:29;9.20;;;3.80;;
54923;SDS011;40825;52.270;20.984;2023-07-16T12:42:55;6.10;;;4.90;;
54923;SDS011;40825;52.270;20.984;2023-07-16T12:45:21;6.30;;;4.80;;
54923;SDS011;40825;52.270;20.984;2023-07-16T12:47:46;6.70;;;4.30;;
54923;SDS011;40825;52.270;20.984;2023-07-16T12:50:12;8.40;;;4.80;;
54923;SDS011;40825;52.270;20.984;2023-07-16T12:52:38;9.60;;;4.90;;
54923;SDS011;40825;52.270;20.984;2023-07-16T12:55:03;7.20;;;4.10;;
54923;SDS011;40825;52.270;20.984;2023-07-16T12:57:29;6.50;;;4.20;;
54923;SDS011;40825;52.270;20.984;2023-07-16T12:59:54;6.90;;;4.50;;
54923;SDS011;40825;52.270;20.984;2023-07-16T13:02:20;7.30;;;4.20;;
54923;SDS011;40825;52.270;20.984;2023-07-16T13:04:45;6.40;;;4.10;;
54923;SDS011;40825;52.270;20.984;2023-07-16T13:07:11;8.30;;;3.90;;
54923;SDS011;40825;52.270;20.984;2023-07-16T13:09:36;6.90;;;4.10;;
54923;SDS011;40825;52.270;20.984;2023-07-16T13:12:02;7.50;;;4.10;;
54923;SDS011;40825;52.270;20.984;2023-07-16T13:14:28;8.20;;;3.80;;
54923;SDS011;40825;52.270;20.984;2023-07-16T13:16:53;5.50;;;3.10;;
54923;SDS011;40825;52.270;20.984;2023-07-16T13:19:19;8.60;;;2.70;;
54923;SDS011;40825;52.270;20.984;2023-07-16T13:21:44;5.60;;;3.30;;
54923;SDS011;40825;52.270;20.984;2023-07-16T13:24:10;5.50;;;3.40;;
54923;SDS011;40825;52.270;20.984;2023-07-16T13:26:35;6.80;;;3.70;;
54923;SDS011;40825;52.270;20.984;2023-07-16T13:29:01;6.50;;;3.90;;
54923;SDS011;40825;52.270;20.984;2023-07-16T13:31:27;6.50;;;3.90;;
54923;SDS011;40825;52.270;20.984;2023-07-16T13:33:52;5.20;;;3.20;;
54923;SDS011;40825;52.270;20.984;2023-07-16T13:36:18;5.90;;;3.40;;
54923;SDS011;40825;52.270;20.984;2023-07-16T13:38:43;6.30;;;3.80;;
54923;SDS011;40825;52.270;20.984;2023-07-16T13:41:09;5.90;;;3.40;;
54923;SDS011;40825;52.270;20.984;2023-07-16T13:43:35;7.20;;;4.10;;
54923;SDS011;40825;52.270;20.984;2023-07-16T13:46:00;4.60;;;3.20;;
54923;SDS011;40825;52.270;20.984;2023-07-16T13:48:26;6.00;;;3.60;;
54923;SDS011;40825;52.270;20.984;2023-07-16T13:50:51;6.60;;;2.90;;
54923;SDS011;40825;52.270;20.984;2023-07-16T13:53:17;5.00;;;3.60;;
54923;SDS011;40825;52.270;20.984;2023-07-16T13:55:42;5.70;;;3.00;;
54923;SDS011;40825;52.270;20.984;2023-07-16T13:58:09;6.90;;;3.00;;
54923;SDS011;40825;52.270;20.984;2023-07-16T14:00:35;5.80;;;2.90;;
54923;SDS011;40825;52.270;20.984;2023-07-16T14:03:00;6.00;;;3.60;;
54923;SDS011;40825;52.270;20.984;2023-07-16T14:05:26;4.90;;;2.60;;
54923;SDS011;40825;52.270;20.984;2023-07-16T14:07:52;4.40;;;2.90;;
54923;SDS011;40825;52.270;20.984;2023-07-16T14:10:19;5.20;;;2.70;;
54923;SDS011;40825;52.270;20.984;2023-07-16T14:12:44;4.40;;;2.90;;
54923;SDS011;40825;52.270;20.984;2023-07-16T14:15:10;5.20;;;2.80;;
54923;SDS011;40825;52.270;20.984;2023-07-16T14:17:35;5.60;;;2.60;;
54923;SDS011;40825;52.270;20.984;2023-07-16T14:20:01;4.50;;;3.30;;
54923;SDS011;40825;52.270;20.984;2023-07-16T14:22:26;5.80;;;2.50;;
54923;SDS011;40825;52.270;20.984;2023-07-16T14:24:53;4.50;;;2.50;;
54923;SDS011;40825;52.270;20.984;2023-07-16T14:27:19;4.50;;;2.30;;
54923;SDS011;40825;52.270;20.984;2023-07-16T14:29:45;5.20;;;2.70;;
54923;SDS011;40825;52.270;20.984;2023-07-16T14:32:11;3.80;;;2.30;;
54923;SDS011;40825;52.270;20.984;2023-07-16T14:34:37;3.80;;;2.20;;
54923;SDS011;40825;52.270;20.984;2023-07-16T14:37:02;4.30;;;2.60;;
54923;SDS011;40825;52.270;20.984;2023-07-16T14:39:29;5.40;;;2.50;;
54923;SDS011;40825;52.270;20.984;2023-07-16T14:41:54;4.70;;;2.70;;
54923;SDS011;40825;52.270;20.984;2023-07-16T14:44:20;6.90;;;3.10;;
54923;SDS011;40825;52.270;20.984;2023-07-16T14:46:46;4.10;;;2.50;;
54923;SDS011;40825;52.270;20.984;2023-07-16T14:49:11;5.90;;;2.40;;
54923;SDS011;40825;52.270;20.984;2023-07-16T14:51:36;4.20;;;1.80;;
54923;SDS011;40825;52.270;20.984;2023-07-16T14:54:07;4.20;;;1.90;;
54923;SDS011;40825;52.270;20.984;2023-07-16T14:56:35;3.70;;;1.80;;
54923;SDS011;40825;52.270;20.984;2023-07-16T14:59:00;4.10;;;1.60;;
54923;SDS011;40825;52.270;20.984;2023-07-16T15:01:27;5.80;;;1.80;;